createdAt,value
2023-03-16T00:48:11.163Z,943.00
2023-03-16T00:52:10.622Z,941.00
2023-03-16T00:53:10.637Z,941.00
2023-03-16T00:54:10.680Z,938.00
2023-03-16T00:55:10.708Z,934.00
2023-03-16T00:56:11.667Z,933.00
2023-03-16T00:57:10.770Z,933.00
2023-03-16T00:58:10.802Z,935.00
2023-03-16T00:59:10.823Z,936.00
2023-03-16T01:00:10.850Z,933.00
2023-03-16T01:01:10.960Z,934.00
2023-03-16T01:02:10.938Z,929.00
2023-03-16T01:03:11.002Z,927.00
2023-03-16T01:04:10.985Z,927.00
2023-03-16T01:05:11.017Z,925.00
2023-03-16T01:06:11.065Z,920.00
2023-03-16T01:08:11.106Z,924.00
2023-03-16T01:09:11.148Z,921.00
2023-03-16T01:10:11.174Z,922.00
2023-03-16T01:11:11.212Z,923.00
2023-03-16T01:12:11.245Z,919.00
2023-03-16T01:13:11.288Z,914.00
2023-03-16T01:14:11.320Z,910.00
2023-03-16T01:15:11.339Z,907.00
2023-03-16T01:16:11.387Z,907.00
2023-03-16T01:17:11.427Z,908.00
2023-03-16T01:37:12.050Z,903.00
2023-03-16T02:09:13.122Z,878.00
2023-03-16T02:11:13.192Z,875.00
2023-03-16T02:13:13.251Z,875.00
2023-03-16T06:47:20.800Z,1431.00
2023-03-16T07:02:20.811Z,1866.00
2023-03-16T07:22:20.596Z,2423.00
2023-03-16T07:23:20.648Z,2440.00
2023-03-16T07:24:20.713Z,2457.00
2023-03-16T07:25:20.769Z,2472.00
2023-03-16T07:26:20.834Z,2491.00
2023-03-16T07:27:20.948Z,2247.00
2023-03-16T07:28:20.872Z,1907.00
2023-03-16T07:29:20.874Z,2042.00
2023-03-16T07:30:20.881Z,1878.00
2023-03-16T07:31:20.965Z,1931.00
2023-03-16T07:32:21.812Z,1679.00
2023-03-16T07:33:20.987Z,1538.00
2023-03-16T07:34:21.009Z,1558.00
2023-03-16T07:35:21.803Z,1535.00
2023-03-16T07:36:21.158Z,1414.00
2023-03-16T07:37:25.271Z,1476.00
2023-03-16T07:38:21.816Z,1406.00
2023-03-16T07:39:21.107Z,1394.00
2023-03-16T07:40:21.017Z,1298.00
2023-03-16T07:41:21.009Z,1214.00
2023-03-16T07:42:21.068Z,1206.00
2023-03-16T07:43:21.005Z,1203.00
2023-03-16T07:44:21.107Z,1193.00
2023-03-16T07:45:20.982Z,1154.00
2023-03-16T07:46:21.003Z,1162.00
2023-03-16T07:47:20.990Z,1258.00
2023-03-16T07:48:20.979Z,1263.00
2023-03-16T07:49:21.050Z,1269.00
2023-03-16T07:50:21.020Z,1278.00
2023-03-16T07:51:20.947Z,1290.00
2023-03-16T07:52:20.938Z,1286.00
2023-03-16T07:53:20.933Z,1268.00
2023-03-16T07:54:20.927Z,1270.00
2023-03-16T07:55:20.998Z,1278.00
2023-03-16T07:56:20.917Z,1284.00
2023-03-16T07:57:20.913Z,1283.00
2023-03-16T07:58:21.894Z,1285.00
2023-03-16T07:59:21.080Z,1259.00
2023-03-16T08:00:20.904Z,1247.00
2023-03-16T08:01:20.892Z,1250.00
2023-03-16T08:02:20.908Z,1242.00
2023-03-16T08:03:20.946Z,1234.00
2023-03-16T08:04:20.867Z,1193.00
2023-03-16T08:05:21.834Z,1195.00
2023-03-16T08:06:20.852Z,1207.00
2023-03-16T08:07:20.925Z,1214.00
2023-03-16T08:08:20.838Z,1211.00
2023-03-16T08:09:20.940Z,1213.00
2023-03-16T08:13:20.803Z,1223.00
2023-03-16T08:14:20.798Z,1222.00
2023-03-16T08:15:20.855Z,1214.00
2023-03-16T08:16:22.081Z,1205.00
2023-03-16T08:17:20.982Z,1013.00
2023-03-16T08:18:20.985Z,988.00
2023-03-16T08:19:20.988Z,962.00
2023-03-16T08:20:21.056Z,1063.00
2023-03-16T08:21:20.998Z,1181.00
2023-03-16T08:22:21.748Z,1183.00
2023-03-16T08:24:21.109Z,1085.00
2023-03-16T08:25:21.211Z,1075.00
2023-03-16T08:26:21.213Z,1063.00
2023-03-16T08:29:21.244Z,991.00
2023-03-16T08:30:21.219Z,968.00
2023-03-16T08:31:21.299Z,959.00
2023-03-16T08:32:21.269Z,948.00
2023-03-16T08:33:23.269Z,950.00
2023-03-16T08:34:21.289Z,1014.00
2023-03-16T08:35:21.355Z,1016.00
2023-03-16T08:36:21.295Z,1044.00
2023-03-16T08:37:21.298Z,1082.00
2023-03-16T08:38:21.310Z,1085.00
2023-03-16T08:39:21.319Z,1089.00
2023-03-16T08:40:21.368Z,1094.00
2023-03-16T08:41:21.427Z,1104.00
2023-03-16T08:42:21.480Z,1110.00
2023-03-16T08:43:21.539Z,1148.00
2023-03-16T08:44:21.579Z,1150.00
2023-03-16T08:45:21.640Z,1151.00
2023-03-16T08:46:22.420Z,1155.00
2023-03-16T08:47:21.742Z,1151.00
2023-03-16T08:48:21.785Z,1153.00
2023-03-16T08:49:21.828Z,1108.00
2023-03-16T08:50:21.877Z,1127.00
2023-03-16T08:51:21.934Z,1142.00
2023-03-16T08:52:23.079Z,1153.00
2023-03-16T08:53:22.014Z,1165.00
2023-03-16T08:54:22.056Z,1175.00
2023-03-16T08:55:22.094Z,1187.00
2023-03-16T08:56:22.143Z,1199.00
2023-03-16T08:57:22.167Z,1210.00
2023-03-16T08:58:22.192Z,1218.00
2023-03-16T08:59:29.711Z,1228.00
2023-03-16T09:00:23.223Z,1221.00
2023-03-16T09:01:22.300Z,1230.00
2023-03-16T09:02:22.200Z,1233.00
2023-03-16T09:03:22.192Z,1233.00
2023-03-16T09:04:22.206Z,1188.00
2023-03-16T09:05:22.194Z,1216.00
2023-03-16T09:06:22.181Z,1222.00
2023-03-16T09:07:22.167Z,1236.00
2023-03-16T09:08:22.175Z,1251.00
2023-03-16T09:09:22.144Z,1270.00
2023-03-16T09:10:22.150Z,1267.00
2023-03-16T09:24:22.400Z,1070.00
2023-03-16T09:25:22.440Z,1073.00
2023-03-16T09:27:23.425Z,1100.00
2023-03-16T09:28:22.503Z,1233.00
2023-03-16T09:29:22.502Z,1245.00
2023-03-16T09:30:23.281Z,1265.00
2023-03-16T09:31:22.623Z,1294.00
2023-03-16T09:32:23.293Z,1328.00
2023-03-16T09:33:22.499Z,1342.00
2023-03-16T09:34:22.498Z,1370.00
2023-03-16T09:35:22.501Z,1392.00
2023-03-16T09:36:22.490Z,1396.00
2023-03-16T09:37:22.480Z,1410.00
2023-03-16T09:38:22.466Z,1428.00
2023-03-16T09:39:22.473Z,1502.00
2023-03-16T09:40:22.529Z,1507.00
2023-03-16T09:41:22.529Z,1521.00
2023-03-16T09:42:22.573Z,1535.00
2023-03-16T09:43:22.653Z,1586.00
2023-03-16T09:44:22.689Z,1607.00
2023-03-16T09:45:22.879Z,1616.00
2023-03-16T09:46:22.947Z,1625.00
2023-03-16T09:47:22.826Z,1640.00
2023-03-16T09:48:22.916Z,1663.00
2023-03-16T09:49:22.962Z,1716.00
2023-03-16T09:50:23.045Z,1732.00
2023-03-16T09:51:23.071Z,1683.00
2023-03-16T09:52:23.049Z,1577.00
2023-03-16T09:54:23.234Z,1548.00
2023-03-16T09:55:23.863Z,1432.00
2023-03-16T09:56:23.280Z,1686.00
2023-03-16T09:57:23.383Z,1288.00
2023-03-16T09:58:23.378Z,1560.00
2023-03-16T09:59:23.461Z,1716.00
2023-03-16T10:00:23.579Z,1514.00
2023-03-16T10:01:23.604Z,1668.00
2023-03-16T10:02:23.597Z,1150.00
2023-03-16T10:03:23.585Z,1356.00
2023-03-16T13:24:30.698Z,1509.00
2023-03-16T13:25:30.759Z,1513.00
2023-03-16T13:26:30.791Z,1511.00
2023-03-16T13:38:31.398Z,1484.00
2023-03-16T13:39:31.438Z,1484.00
2023-03-16T13:41:31.543Z,1481.00
2023-03-16T13:42:31.639Z,1483.00
2023-03-16T13:43:31.621Z,1483.00
2023-03-16T13:44:31.713Z,1486.00
2023-03-16T13:45:31.721Z,1484.00
2023-03-16T14:08:32.822Z,1456.00
2023-03-16T14:09:32.853Z,1455.00
2023-03-16T16:32:41.024Z,1273.00
2023-03-16T16:35:40.731Z,1276.00
2023-03-16T16:36:40.679Z,1273.00
2023-03-16T16:37:40.718Z,1270.00
2023-03-16T16:38:40.784Z,1271.00
2023-03-16T16:39:40.847Z,1267.00
2023-03-16T16:40:40.918Z,1265.00
2023-03-16T16:41:40.948Z,1263.00
2023-03-16T16:42:40.988Z,1261.00
2023-03-16T16:43:41.032Z,1261.00
2023-03-16T16:44:41.055Z,1260.00
2023-03-16T16:45:41.134Z,1258.00
2023-03-16T16:46:41.075Z,1258.00
2023-03-16T16:47:41.089Z,1257.00
2023-03-16T16:48:41.082Z,1255.00
2023-03-16T16:53:41.127Z,1254.00
2023-03-16T16:54:41.156Z,1252.00
2023-03-16T16:55:42.344Z,1249.00
2023-03-16T16:56:41.159Z,1249.00
2023-03-16T17:07:41.234Z,1253.00
2023-03-16T17:08:41.250Z,1253.00
2023-03-16T17:09:41.272Z,1254.00
2023-03-16T17:10:41.259Z,1254.00
2023-03-16T17:11:41.261Z,1253.00
2023-03-16T17:12:41.276Z,1254.00
2023-03-16T17:13:41.264Z,1251.00
2023-03-16T17:14:41.269Z,1250.00
2023-03-16T17:15:41.254Z,1250.00
2023-03-16T17:16:41.308Z,1248.00
2023-03-16T17:17:41.259Z,1247.00
2023-03-16T17:18:41.261Z,1244.00
2023-03-16T17:19:41.266Z,1244.00
2023-03-16T17:20:41.250Z,1244.00
2023-03-16T17:21:41.267Z,1240.00
2023-03-16T17:22:41.267Z,1241.00
2023-03-16T17:23:41.265Z,1240.00
2023-03-16T17:24:41.289Z,1240.00
2023-03-16T17:25:41.284Z,1236.00
2023-03-16T17:26:41.277Z,1233.00
2023-03-16T17:27:41.367Z,1235.00
2023-03-16T17:28:41.294Z,1236.00
2023-03-16T17:29:41.298Z,1234.00
2023-03-16T17:30:41.473Z,1228.00
2023-03-16T17:31:41.305Z,1225.00
2023-03-16T17:32:41.341Z,1227.00
2023-03-16T17:33:41.334Z,1228.00
2023-03-16T17:34:41.340Z,1228.00
2023-03-16T17:35:41.374Z,1224.00
2023-03-16T17:36:41.377Z,1219.00
2023-03-16T17:37:41.407Z,1217.00
2023-03-16T17:38:41.394Z,1219.00
2023-03-16T17:39:41.407Z,1219.00
2023-03-16T17:40:41.415Z,1220.00
2023-03-16T17:41:41.480Z,1218.00
2023-03-16T17:42:41.494Z,1216.00
2023-03-16T17:43:41.517Z,1216.00
2023-03-16T17:44:41.540Z,1217.00
2023-03-16T17:45:41.548Z,1217.00
2023-03-16T17:46:41.677Z,1215.00
2023-03-16T17:47:41.605Z,1215.00
2023-03-16T17:48:41.647Z,1215.00
2023-03-16T17:49:41.649Z,1216.00
2023-03-16T17:50:41.664Z,1219.00
2023-03-16T17:51:41.691Z,1219.00
2023-03-16T17:52:41.714Z,1219.00
2023-03-16T17:53:41.792Z,1216.00
2023-03-16T17:54:41.753Z,1216.00
2023-03-16T17:55:41.760Z,1215.00
2023-03-16T17:56:41.819Z,1215.00
2023-03-16T17:57:41.796Z,1212.00
2023-03-16T17:58:41.812Z,1212.00
2023-03-16T17:59:41.842Z,1212.00
2023-03-16T18:00:41.875Z,1208.00
2023-03-16T18:01:41.937Z,1204.00
2023-03-16T18:02:41.926Z,1201.00
2023-03-16T18:03:41.951Z,1204.00
2023-03-16T18:04:41.932Z,1202.00
2023-03-16T18:05:41.971Z,1199.00
2023-03-16T18:06:41.989Z,1198.00
2023-03-16T18:07:42.009Z,1196.00
2023-03-16T18:08:42.040Z,1196.00
2023-03-16T18:09:42.050Z,1197.00
2023-03-16T18:10:42.073Z,1200.00
2023-03-16T18:11:42.094Z,1199.00
2023-03-16T18:12:42.119Z,1196.00
2023-03-16T18:13:42.144Z,1191.00
2023-03-16T18:14:42.169Z,1189.00
2023-03-16T18:15:42.176Z,1189.00
2023-03-16T18:16:42.658Z,1184.00
2023-03-16T18:17:42.238Z,1185.00
2023-03-16T18:18:42.256Z,1185.00
2023-03-16T18:19:42.283Z,1185.00
2023-03-16T18:20:42.318Z,1186.00
2023-03-16T18:21:42.330Z,1186.00
2023-03-16T18:22:42.366Z,1185.00
2023-03-16T18:23:42.463Z,1184.00
2023-03-16T18:24:42.405Z,1178.00
2023-03-16T18:25:42.417Z,1174.00
2023-03-16T18:26:42.444Z,1176.00
2023-03-16T18:27:42.465Z,1178.00
2023-03-16T18:28:42.486Z,1176.00
2023-03-16T18:29:43.065Z,1175.00
2023-03-16T18:30:42.549Z,1174.00
2023-03-16T18:31:42.718Z,1174.00
2023-03-16T18:32:42.637Z,1175.00
2023-03-16T18:33:42.607Z,1175.00
2023-03-16T18:34:43.572Z,1172.00
2023-03-16T18:35:42.669Z,1174.00
2023-03-16T18:36:42.739Z,1171.00
2023-03-16T19:11:43.533Z,1130.00
2023-03-16T19:12:43.532Z,1130.00
2023-03-16T19:13:43.564Z,1128.00
2023-03-16T19:14:43.578Z,1126.00
2023-03-16T19:15:43.607Z,1123.00
2023-03-16T19:16:43.698Z,1120.00
2023-03-16T19:17:43.703Z,1121.00
2023-03-16T19:18:43.692Z,1124.00
2023-03-16T19:19:43.711Z,1122.00
2023-03-16T19:20:43.738Z,1125.00
2023-03-16T20:55:46.685Z,1048.00
2023-03-16T20:56:46.707Z,1048.00
2023-03-16T20:57:46.754Z,1045.00
2023-03-16T20:58:46.789Z,1044.00
2023-03-16T20:59:46.833Z,1039.00
2023-03-16T21:00:46.867Z,1039.00
2023-03-16T21:01:46.982Z,1037.00
2023-03-16T21:02:46.950Z,1039.00
2023-03-16T21:03:46.993Z,1042.00
2023-03-16T21:04:47.057Z,1043.00
2023-03-16T21:05:47.077Z,1042.00
2023-03-16T21:06:47.118Z,1045.00
2023-03-16T21:07:47.161Z,1045.00
2023-03-16T21:08:47.210Z,1038.00
2023-03-16T21:09:50.218Z,1036.00
2023-03-16T21:12:47.254Z,1030.00
2023-03-16T21:13:47.296Z,1030.00
2023-03-16T21:14:47.206Z,1031.00
2023-03-16T21:15:47.294Z,1031.00
2023-03-16T21:16:47.202Z,1030.00
2023-03-16T21:17:48.130Z,1029.00
2023-03-16T21:18:47.195Z,1029.00
2023-03-16T21:19:47.205Z,1030.00
2023-03-16T21:20:47.189Z,1027.00
2023-03-16T21:21:47.182Z,1030.00
2023-03-16T21:22:47.167Z,1032.00
2023-03-16T21:23:47.162Z,1033.00
2023-03-16T21:24:47.159Z,1030.00
2023-03-16T21:25:47.154Z,1029.00
2023-03-16T21:26:47.149Z,1029.00
2023-03-16T21:27:47.138Z,1028.00
2023-03-16T21:28:47.129Z,1027.00
2023-03-16T21:29:47.129Z,1025.00
2023-03-16T21:30:47.234Z,1025.00
2023-03-16T21:31:47.113Z,1026.00
2023-03-16T21:32:47.186Z,1025.00
2023-03-16T21:33:47.181Z,1023.00
2023-03-16T21:34:47.103Z,1021.00
2023-03-16T21:35:47.163Z,1021.00
2023-03-16T21:36:47.076Z,1023.00
2023-03-16T21:37:47.070Z,1023.00
2023-03-16T21:38:47.069Z,1020.00
2023-03-16T21:39:47.116Z,1017.00
2023-03-16T21:40:47.641Z,1015.00
2023-03-16T21:41:47.046Z,1008.00
2023-03-16T21:42:47.040Z,1006.00
2023-03-16T21:43:47.035Z,1004.00
2023-03-16T21:44:47.034Z,1004.00
2023-03-16T21:45:47.037Z,1002.00
2023-03-16T21:46:47.171Z,1001.00
2023-03-16T21:47:47.126Z,1002.00
2023-03-16T21:48:47.177Z,1001.00
2023-03-16T21:49:47.284Z,1001.00
2023-03-16T21:50:47.245Z,1003.00
2023-03-16T21:51:47.279Z,1003.00
2023-03-16T21:52:47.345Z,1004.00
2023-03-16T21:53:47.370Z,1001.00
2023-03-16T21:54:47.406Z,999.00
2023-03-16T21:55:47.452Z,999.00
2023-03-16T21:56:47.492Z,999.00
2023-03-16T21:57:47.530Z,997.00
2023-03-16T21:58:47.572Z,995.00
2023-03-16T21:59:47.610Z,991.00
2023-03-16T22:00:47.665Z,989.00
2023-03-16T22:02:00.803Z,994.00
2023-03-16T22:02:48.861Z,997.00
2023-03-16T22:03:51.300Z,998.00
2023-03-16T22:04:47.674Z,1000.00
2023-03-16T22:05:47.673Z,998.00
2023-03-16T22:06:47.748Z,995.00
2023-03-16T22:07:47.657Z,992.00
2023-03-16T22:08:47.636Z,994.00
2023-03-16T22:09:47.636Z,996.00
2023-03-16T22:10:47.661Z,993.00
2023-03-16T22:11:47.632Z,995.00
2023-03-16T22:12:47.622Z,992.00
2023-03-16T22:13:47.622Z,988.00
2023-03-16T22:14:47.611Z,987.00
2023-03-16T22:15:47.636Z,986.00
2023-03-16T22:16:47.597Z,985.00
2023-03-16T22:17:47.583Z,983.00
2023-03-16T22:18:47.579Z,985.00
2023-03-16T22:19:47.577Z,988.00
2023-03-16T22:20:47.573Z,989.00
2023-03-16T22:21:47.610Z,989.00
2023-03-16T22:22:47.552Z,986.00
2023-03-16T22:23:47.547Z,987.00
2023-03-16T22:24:47.550Z,987.00
2023-03-16T22:25:47.527Z,983.00
2023-03-16T22:26:47.536Z,984.00
2023-03-16T22:27:47.574Z,982.00
2023-03-16T22:28:47.578Z,982.00
2023-03-16T22:29:47.503Z,977.00
2023-03-16T22:30:47.503Z,973.00
2023-03-16T22:31:47.551Z,972.00
2023-03-16T22:32:47.517Z,975.00
2023-03-16T22:33:47.473Z,975.00
2023-03-16T22:34:47.468Z,975.00
2023-03-16T22:35:47.489Z,973.00
2023-03-16T22:36:47.463Z,975.00
2023-03-16T22:37:47.450Z,974.00
2023-03-16T22:38:47.456Z,971.00
2023-03-16T22:39:47.491Z,965.00
2023-03-16T22:40:47.557Z,962.00
2023-03-16T22:41:47.581Z,962.00
2023-03-16T22:42:47.626Z,959.00
2023-03-16T22:43:47.743Z,962.00
2023-03-16T22:44:47.705Z,961.00
2023-03-16T22:45:47.767Z,960.00
2023-03-16T22:46:47.797Z,961.00
2023-03-16T22:47:47.888Z,961.00
2023-03-16T22:48:47.872Z,960.00
2023-03-16T22:49:47.919Z,961.00
2023-03-16T22:50:47.960Z,959.00
2023-03-16T22:51:48.015Z,958.00
2023-03-16T22:52:48.053Z,959.00
2023-03-16T22:53:48.081Z,962.00
2023-03-16T22:54:48.118Z,961.00
2023-03-16T22:55:48.159Z,958.00
2023-03-16T22:56:48.196Z,957.00
2023-03-16T22:57:48.233Z,955.00
2023-03-16T22:58:48.267Z,955.00
2023-03-16T22:59:48.319Z,956.00
2023-03-16T23:00:48.444Z,955.00
2023-03-16T23:01:48.386Z,954.00
2023-03-16T23:02:48.422Z,954.00
2023-03-16T23:03:48.469Z,953.00
2023-03-16T23:04:48.532Z,949.00
2023-03-16T23:05:48.549Z,949.00
2023-03-16T23:06:48.578Z,948.00
2023-03-16T23:07:48.622Z,944.00
2023-03-16T23:08:48.720Z,945.00
2023-03-16T23:09:48.697Z,945.00
2023-03-16T23:10:48.777Z,944.00
2023-03-16T23:11:48.782Z,946.00
2023-03-16T23:12:48.825Z,946.00
2023-03-16T23:13:48.879Z,946.00
2023-03-16T23:14:48.918Z,944.00
2023-03-16T23:15:48.976Z,942.00
2023-03-16T23:16:49.049Z,940.00
2023-03-16T23:17:49.062Z,940.00
2023-03-16T23:18:49.116Z,940.00
2023-03-16T23:19:49.162Z,939.00
2023-03-16T23:20:49.210Z,938.00
2023-03-16T23:21:49.271Z,934.00
2023-03-16T23:24:02.553Z,934.00
2023-03-16T23:24:50.353Z,937.00
2023-03-16T23:25:49.341Z,937.00
2023-03-16T23:26:49.340Z,934.00
2023-03-16T23:27:49.327Z,929.00
2023-03-16T23:28:49.336Z,928.00
2023-03-16T23:29:49.340Z,926.00
2023-03-16T23:30:49.360Z,926.00
2023-03-16T23:31:49.305Z,924.00
2023-03-16T23:56:51.208Z,896.00
